Time;durP1;ratioP1;P1;durP2;ratioP2;P2;SDS_P1;SDS_P2;PMS_P1;PMS_P2;Temp;Humidity;BMP_temperature;BMP_pressure;BME280_temperature;BME280_humidity;BME280_pressure;Samples;Min_cycle;Max_cycle;Signal;HPM_P1;HPM_P2
2022/07/13 00:00:20;;;;;;;8.02;4.10;;;;;;;;;;4940318;28;20031;-88
2022/07/13 00:02:46;;;;;;;3.97;3.30;;;;;;;;;;4942176;28;20043;-89
2022/07/13 00:05:12;;;;;;;6.28;3.85;;;;;;;;;;4947127;28;20833;-88
2022/07/13 00:07:38;;;;;;;6.65;3.88;;;;;;;;;;4943637;28;20043;-89
2022/07/13 00:10:04;;;;;;;5.45;3.85;;;;;;;;;;4944384;28;20047;-89
2022/07/13 00:12:31;;;;;;;4.63;3.50;;;;;;;;;;4938414;28;20035;-88
2022/07/13 00:14:57;;;;;;;6.45;3.88;;;;;;;;;;4946800;28;20031;-88
2022/07/13 00:17:29;;;;;;;3.97;3.58;;;;;;;;;;4947189;28;20027;-89
2022/07/13 00:19:55;;;;;;;7.70;3.78;;;;;;;;;;4940851;28;20039;-89
2022/07/13 00:22:21;;;;;;;5.40;3.67;;;;;;;;;;4960994;28;20023;-89
2022/07/13 00:24:47;;;;;;;8.20;3.60;;;;;;;;;;4947813;28;20424;-89
2022/07/13 00:27:13;;;;;;;8.18;4.40;;;;;;;;;;4959254;28;20091;-89
2022/07/13 00:29:39;;;;;;;4.55;3.50;;;;;;;;;;4947121;28;20241;-89
2022/07/13 00:32:05;;;;;;;5.60;4.25;;;;;;;;;;4945750;28;20042;-89
2022/07/13 00:34:32;;;;;;;5.03;3.83;;;;;;;;;;4943547;28;20660;-88
2022/07/13 00:36:58;;;;;;;16.35;4.47;;;;;;;;;;4944013;28;20042;-88
2022/07/13 00:39:24;;;;;;;10.27;4.20;;;;;;;;;;4943822;28;20038;-89
2022/07/13 00:41:50;;;;;;;5.82;4.20;;;;;;;;;;4946048;28;20031;-89
2022/07/13 00:44:17;;;;;;;4.78;4.18;;;;;;;;;;4946758;28;20081;-89
2022/07/13 00:46:48;;;;;;;11.60;4.00;;;;;;;;;;4946068;28;20046;-89
2022/07/13 00:49:14;;;;;;;4.15;3.75;;;;;;;;;;4947172;28;20126;-88
2022/07/13 00:51:40;;;;;;;5.15;4.00;;;;;;;;;;4942533;28;20027;-89
2022/07/13 00:54:07;;;;;;;5.60;4.00;;;;;;;;;;4944117;28;20043;-89
2022/07/13 00:56:33;;;;;;;8.00;4.53;;;;;;;;;;4938435;28;20418;-89
2022/07/13 00:59:00;;;;;;;8.00;4.20;;;;;;;;;;4962607;28;20136;-89
2022/07/13 01:01:26;;;;;;;7.25;4.45;;;;;;;;;;4952171;28;20024;-87
2022/07/13 01:03:52;;;;;;;6.25;4.30;;;;;;;;;;4960438;28;20041;-89
2022/07/13 01:06:18;;;;;;;7.22;4.15;;;;;;;;;;4961752;28;20220;-89
2022/07/13 01:08:44;;;;;;;8.30;4.80;;;;;;;;;;4953202;28;20039;-88
2022/07/13 01:11:11;;;;;;;5.30;4.72;;;;;;;;;;4969580;28;20023;-89
2022/07/13 01:13:37;;;;;;;7.70;4.70;;;;;;;;;;4947832;28;20423;-88
2022/07/13 01:16:03;;;;;;;8.52;4.55;;;;;;;;;;4950580;28;20827;-89
2022/07/13 01:18:30;;;;;;;5.53;4.70;;;;;;;;;;4961955;28;20030;-89
2022/07/13 01:20:57;;;;;;;12.45;4.82;;;;;;;;;;4947957;28;20042;-89
2022/07/13 01:23:23;;;;;;;9.60;4.93;;;;;;;;;;4951684;28;20682;-89
2022/07/13 01:25:49;;;;;;;7.95;5.22;;;;;;;;;;4953279;28;20070;-88
2022/07/13 01:28:15;;;;;;;6.63;4.65;;;;;;;;;;4946816;28;20077;-87
2022/07/13 01:30:42;;;;;;;9.27;5.40;;;;;;;;;;4949760;28;20054;-88
2022/07/13 01:33:08;;;;;;;6.05;5.20;;;;;;;;;;4947278;28;20038;-89
2022/07/13 01:35:34;;;;;;;7.10;5.47;;;;;;;;;;4942293;28;20031;-89
2022/07/13 01:38:00;;;;;;;8.15;5.05;;;;;;;;;;4953580;28;20430;-88
2022/07/13 01:40:26;;;;;;;6.53;5.38;;;;;;;;;;4950168;28;20073;-88
2022/07/13 01:42:52;;;;;;;10.43;5.38;;;;;;;;;;4960766;28;20105;-87
2022/07/13 01:45:19;;;;;;;6.90;6.07;;;;;;;;;;4953025;28;20022;-88
2022/07/13 01:47:47;;;;;;;8.50;5.00;;;;;;;;;;4948601;28;20126;-87
2022/07/13 01:50:14;;;;;;;9.07;6.38;;;;;;;;;;4945443;28;20164;-88
2022/07/13 01:52:44;;;;;;;9.32;5.93;;;;;;;;;;4951664;28;20030;-88
2022/07/13 01:55:10;;;;;;;6.80;5.97;;;;;;;;;;4948691;28;20049;-88
2022/07/13 01:57:36;;;;;;;8.32;5.60;;;;;;;;;;4945813;28;20117;-87
2022/07/13 02:00:04;;;;;;;8.30;5.75;;;;;;;;;;4965286;28;20062;-88
2022/07/13 02:02:30;;;;;;;7.82;5.75;;;;;;;;;;4951048;28;20033;-88
2022/07/13 02:04:56;;;;;;;10.65;6.10;;;;;;;;;;4945942;28;20230;-88
2022/07/13 02:07:23;;;;;;;8.60;6.03;;;;;;;;;;4947028;28;20038;-87
2022/07/13 02:09:49;;;;;;;9.75;5.80;;;;;;;;;;4966015;28;20038;-88
2022/07/13 02:12:15;;;;;;;13.70;5.60;;;;;;;;;;4953189;28;20521;-88
2022/07/13 02:14:41;;;;;;;11.18;5.95;;;;;;;;;;4948649;28;20027;-88
2022/07/13 02:17:07;;;;;;;7.13;5.80;;;;;;;;;;4967203;28;20501;-88
2022/07/13 02:19:33;;;;;;;13.65;6.93;;;;;;;;;;4966737;28;20033;-88
2022/07/13 02:21:59;;;;;;;8.02;5.68;;;;;;;;;;4963470;28;20065;-88
2022/07/13 02:24:25;;;;;;;8.85;6.15;;;;;;;;;;4943328;28;20034;-87
2022/07/13 02:26:51;;;;;;;10.45;6.50;;;;;;;;;;4949358;28;20042;-88
2022/07/13 02:29:17;;;;;;;11.73;6.00;;;;;;;;;;4944892;28;20038;-88
2022/07/13 02:31:43;;;;;;;7.55;6.00;;;;;;;;;;4959682;28;20030;-88
2022/07/13 02:34:09;;;;;;;7.30;6.03;;;;;;;;;;4946929;28;20034;-89
2022/07/13 02:36:35;;;;;;;11.05;6.65;;;;;;;;;;4944435;28;20034;-89
2022/07/13 02:39:01;;;;;;;8.88;6.18;;;;;;;;;;4947267;28;20039;-89
2022/07/13 02:41:27;;;;;;;10.57;6.43;;;;;;;;;;4949650;28;20077;-89
2022/07/13 02:43:53;;;;;;;9.27;6.10;;;;;;;;;;4961666;28;20093;-90
2022/07/13 02:46:19;;;;;;;8.90;6.90;;;;;;;;;;4945180;28;20047;-88
2022/07/13 02:48:45;;;;;;;16.40;6.57;;;;;;;;;;4946895;28;20034;-89
2022/07/13 02:51:11;;;;;;;9.32;6.18;;;;;;;;;;4954333;28;20030;-88
2022/07/13 02:53:37;;;;;;;11.48;6.45;;;;;;;;;;4965913;28;20046;-89
2022/07/13 02:56:06;;;;;;;7.40;5.85;;;;;;;;;;4960935;28;20070;-89
2022/07/13 02:58:32;;;;;;;8.35;6.13;;;;;;;;;;4948068;28;20027;-88
2022/07/13 03:00:58;;;;;;;15.15;6.20;;;;;;;;;;4968953;28;20244;-89
2022/07/13 03:03:24;;;;;;;11.00;6.95;;;;;;;;;;4954517;28;20062;-89
2022/07/13 03:05:53;;;;;;;8.95;5.95;;;;;;;;;;4954947;28;20055;-88
2022/07/13 03:08:19;;;;;;;8.40;6.07;;;;;;;;;;4949389;28;20034;-89
2022/07/13 03:10:45;;;;;;;8.25;6.65;;;;;;;;;;4963803;28;20035;-89
2022/07/13 03:13:11;;;;;;;8.98;6.25;;;;;;;;;;4947380;28;20517;-89
2022/07/13 03:15:38;;;;;;;11.65;5.85;;;;;;;;;;4951271;28;20773;-89
2022/07/13 03:18:04;;;;;;;7.10;6.32;;;;;;;;;;4966516;28;20879;-89
2022/07/13 03:20:30;;;;;;;10.98;6.45;;;;;;;;;;4951745;28;20090;-89
2022/07/13 03:22:56;;;;;;;12.13;6.28;;;;;;;;;;4948538;28;20035;-89
2022/07/13 03:25:22;;;;;;;9.00;6.13;;;;;;;;;;4952527;28;20599;-88
2022/07/13 03:27:48;;;;;;;8.23;5.75;;;;;;;;;;4952151;28;20030;-89
2022/07/13 03:30:14;;;;;;;8.63;6.32;;;;;;;;;;4950127;28;20076;-89
2022/07/13 03:32:40;;;;;;;10.45;5.88;;;;;;;;;;4950255;28;20066;-89
2022/07/13 03:35:06;;;;;;;8.02;6.20;;;;;;;;;;4951613;28;20030;-89
2022/07/13 03:37:32;;;;;;;8.00;6.65;;;;;;;;;;4953512;28;20082;-88
2022/07/13 03:39:58;;;;;;;9.05;5.88;;;;;;;;;;4961237;28;20094;-89
2022/07/13 03:42:24;;;;;;;9.68;6.43;;;;;;;;;;4949440;28;20366;-88
2022/07/13 03:44:50;;;;;;;8.32;6.05;;;;;;;;;;4950612;28;20141;-89
2022/07/13 03:47:16;;;;;;;7.72;6.35;;;;;;;;;;4949324;28;20031;-89
2022/07/13 03:49:42;;;;;;;11.07;6.57;;;;;;;;;;4961346;28;20027;-89
2022/07/13 03:52:08;;;;;;;10.40;6.47;;;;;;;;;;4949924;28;20069;-89
2022/07/13 03:54:34;;;;;;;8.75;6.53;;;;;;;;;;4970811;28;20035;-88
2022/07/13 03:57:07;;;;;;;8.25;6.10;;;;;;;;;;4952769;28;20042;-88
2022/07/13 03:59:34;;;;;;;10.02;6.03;;;;;;;;;;4970679;28;20045;-88
2022/07/13 04:02:00;;;;;;;7.53;5.03;;;;;;;;;;4945719;28;20029;-87
2022/07/13 04:04:27;;;;;;;8.77;5.22;;;;;;;;;;4961903;28;20034;-89
2022/07/13 04:06:53;;;;;;;11.32;5.63;;;;;;;;;;4968337;28;20015;-89
2022/07/13 04:09:19;;;;;;;9.43;5.97;;;;;;;;;;4955898;28;20122;-89
2022/07/13 04:11:47;;;;;;;8.63;5.53;;;;;;;;;;4948009;28;20038;-88
2022/07/13 04:14:13;;;;;;;10.35;5.88;;;;;;;;;;4967719;28;20039;-89
2022/07/13 04:16:46;;;;;;;13.50;6.22;;;;;;;;;;4961075;28;20035;-89
2022/07/13 04:19:12;;;;;;;9.43;5.13;;;;;;;;;;4960008;28;20106;-89
2022/07/13 04:21:38;;;;;;;10.88;5.03;;;;;;;;;;4964365;28;20098;-89
2022/07/13 04:24:04;;;;;;;7.25;5.38;;;;;;;;;;4943945;28;20065;-88
2022/07/13 04:26:30;;;;;;;11.25;5.50;;;;;;;;;;4948989;28;20058;-88
2022/07/13 04:28:56;;;;;;;9.07;5.50;;;;;;;;;;4946668;28;20071;-88
2022/07/13 04:31:22;;;;;;;8.07;5.20;;;;;;;;;;4968190;28;20246;-89
2022/07/13 04:33:48;;;;;;;9.95;5.10;;;;;;;;;;4948249;28;20043;-88
2022/07/13 04:36:14;;;;;;;7.90;4.97;;;;;;;;;;4964545;28;20303;-89
2022/07/13 04:38:40;;;;;;;7.80;4.57;;;;;;;;;;4964620;28;20059;-89
2022/07/13 04:41:06;;;;;;;9.98;5.43;;;;;;;;;;4945516;28;20501;-88
2022/07/13 04:43:32;;;;;;;8.65;5.10;;;;;;;;;;4965434;28;20037;-88
2022/07/13 04:45:58;;;;;;;8.50;5.60;;;;;;;;;;4951273;28;20065;-89
2022/07/13 04:48:24;;;;;;;17.17;5.78;;;;;;;;;;4948871;28;20436;-87
2022/07/13 04:50:50;;;;;;;6.95;5.25;;;;;;;;;;4965577;28;20031;-88
2022/07/13 04:53:16;;;;;;;10.43;5.32;;;;;;;;;;4964521;28;20643;-89
2022/07/13 04:55:43;;;;;;;13.20;5.63;;;;;;;;;;4969343;28;20045;-89
2022/07/13 04:58:09;;;;;;;11.45;5.90;;;;;;;;;;4964363;28;20550;-89
2022/07/13 05:00:35;;;;;;;14.98;5.88;;;;;;;;;;4951833;28;20121;-89
2022/07/13 05:03:01;;;;;;;7.28;5.47;;;;;;;;;;4966299;28;20039;-89
2022/07/13 05:05:31;;;;;;;7.97;4.88;;;;;;;;;;4965748;28;20090;-88
2022/07/13 05:07:59;;;;;;;14.43;5.85;;;;;;;;;;4949705;28;20034;-88
2022/07/13 05:10:25;;;;;;;6.68;5.18;;;;;;;;;;4963015;28;20513;-88
2022/07/13 05:12:51;;;;;;;9.48;5.75;;;;;;;;;;4947146;28;20039;-87
2022/07/13 05:15:18;;;;;;;8.85;6.15;;;;;;;;;;4952513;28;20027;-89
2022/07/13 05:17:44;;;;;;;13.63;5.88;;;;;;;;;;4946399;28;20046;-89
2022/07/13 05:20:10;;;;;;;15.43;5.72;;;;;;;;;;4944956;28;20034;-89
2022/07/13 05:22:36;;;;;;;8.70;5.55;;;;;;;;;;4947471;28;20372;-88
2022/07/13 05:25:03;;;;;;;8.43;5.78;;;;;;;;;;4948413;28;20149;-90
2022/07/13 05:27:29;;;;;;;12.38;5.88;;;;;;;;;;4956158;28;20106;-90
2022/07/13 05:29:55;;;;;;;7.60;6.05;;;;;;;;;;4964997;28;20019;-90
2022/07/13 05:32:21;;;;;;;12.93;6.32;;;;;;;;;;4963759;28;20062;-89
2022/07/13 05:34:47;;;;;;;8.30;5.85;;;;;;;;;;4967557;28;20054;-89
2022/07/13 05:37:14;;;;;;;11.48;6.65;;;;;;;;;;4980313;28;20481;-89
2022/07/13 05:39:43;;;;;;;12.45;6.75;;;;;;;;;;4971158;28;20019;-89
2022/07/13 05:42:11;;;;;;;9.27;6.65;;;;;;;;;;4966424;28;20030;-89
2022/07/13 05:44:37;;;;;;;9.50;6.85;;;;;;;;;;4950241;28;20442;-87
2022/07/13 05:47:03;;;;;;;9.45;7.70;;;;;;;;;;4949999;28;20027;-85
2022/07/13 05:49:29;;;;;;;10.57;7.45;;;;;;;;;;4962424;28;20023;-88
2022/07/13 05:51:55;;;;;;;13.45;7.15;;;;;;;;;;4948782;28;20114;-88
2022/07/13 05:54:21;;;;;;;18.35;7.18;;;;;;;;;;4952419;28;20050;-87
2022/07/13 05:56:47;;;;;;;10.48;7.47;;;;;;;;;;4948266;28;20070;-88
2022/07/13 05:59:16;;;;;;;11.50;7.25;;;;;;;;;;4961623;28;20400;-88
2022/07/13 06:01:42;;;;;;;14.45;8.07;;;;;;;;;;4944349;28;20038;-87
2022/07/13 06:04:08;;;;;;;16.67;8.00;;;;;;;;;;4969707;28;20094;-87
2022/07/13 06:06:34;;;;;;;13.70;7.22;;;;;;;;;;4965068;28;20119;-88
2022/07/13 06:09:07;;;;;;;15.48;7.40;;;;;;;;;;4966260;28;20151;-88
2022/07/13 06:11:33;;;;;;;12.85;7.68;;;;;;;;;;4977652;28;20035;-88
2022/07/13 06:13:59;;;;;;;10.00;7.70;;;;;;;;;;4964965;28;20034;-88
2022/07/13 06:16:25;;;;;;;15.50;8.05;;;;;;;;;;4972399;28;20102;-88
2022/07/13 06:18:51;;;;;;;17.23;8.77;;;;;;;;;;4991380;28;20021;-88
2022/07/13 06:21:17;;;;;;;11.25;8.23;;;;;;;;;;4967126;28;20019;-88
2022/07/13 06:23:43;;;;;;;14.05;8.40;;;;;;;;;;4981781;28;20039;-88
2022/07/13 06:26:09;;;;;;;20.90;8.38;;;;;;;;;;4969017;28;20705;-88
2022/07/13 06:28:35;;;;;;;12.43;8.27;;;;;;;;;;4958470;28;20035;-86
2022/07/13 06:31:01;;;;;;;14.93;8.07;;;;;;;;;;4941616;28;20129;-85
2022/07/13 06:33:27;;;;;;;15.50;9.35;;;;;;;;;;4949443;28;20102;-84
2022/07/13 06:35:53;;;;;;;17.73;9.63;;;;;;;;;;4951953;28;20104;-84
2022/07/13 06:38:19;;;;;;;14.25;9.43;;;;;;;;;;4958089;28;20034;-87
2022/07/13 06:40:47;;;;;;;13.15;8.55;;;;;;;;;;4949168;28;20177;-87
2022/07/13 06:43:13;;;;;;;13.93;9.18;;;;;;;;;;4961635;28;20062;-87
2022/07/13 06:45:39;;;;;;;16.17;9.70;;;;;;;;;;4946315;28;20106;-86
2022/07/13 06:48:06;;;;;;;15.38;8.88;;;;;;;;;;4952194;28;20038;-85
2022/07/13 06:50:32;;;;;;;11.40;7.97;;;;;;;;;;4949087;28;20519;-84
2022/07/13 06:52:58;;;;;;;15.85;9.43;;;;;;;;;;4951360;28;20809;-87
2022/07/13 06:55:24;;;;;;;17.73;8.70;;;;;;;;;;4966059;28;20564;-87
2022/07/13 06:57:51;;;;;;;13.95;8.63;;;;;;;;;;4962745;28;20046;-85
2022/07/13 07:00:17;;;;;;;12.25;8.60;;;;;;;;;;4947258;28;20038;-85
2022/07/13 07:02:43;;;;;;;15.60;8.95;;;;;;;;;;4952243;28;20054;-85
2022/07/13 07:05:10;;;;;;;16.80;8.50;;;;;;;;;;4942149;28;20109;-89
2022/07/13 07:07:37;;;;;;;11.93;8.18;;;;;;;;;;4948388;28;20034;-87
2022/07/13 07:10:03;;;;;;;13.82;8.57;;;;;;;;;;4960830;28;20049;-88
2022/07/13 07:12:29;;;;;;;20.58;8.77;;;;;;;;;;4949057;28;20633;-86
2022/07/13 07:14:55;;;;;;;18.27;8.38;;;;;;;;;;4944956;28;20042;-86
2022/07/13 07:17:21;;;;;;;17.52;9.15;;;;;;;;;;4963244;28;20057;-86
2022/07/13 07:19:47;;;;;;;17.17;8.75;;;;;;;;;;4950956;28;20493;-86
2022/07/13 07:22:13;;;;;;;12.85;8.65;;;;;;;;;;4947408;28;20085;-86
2022/07/13 07:24:40;;;;;;;14.68;7.70;;;;;;;;;;4945784;28;20043;-86
2022/07/13 07:27:07;;;;;;;12.82;7.28;;;;;;;;;;4948445;28;20034;-86
2022/07/13 07:29:34;;;;;;;13.38;7.85;;;;;;;;;;4959871;28;20062;-87
2022/07/13 07:32:01;;;;;;;13.98;8.13;;;;;;;;;;4961889;28;20038;-85
2022/07/13 07:34:28;;;;;;;17.80;7.72;;;;;;;;;;4939102;28;20177;-85
2022/07/13 07:36:54;;;;;;;12.98;7.07;;;;;;;;;;4944009;28;20035;-87
2022/07/13 07:39:20;;;;;;;14.23;7.63;;;;;;;;;;4961710;28;20031;-90
2022/07/13 07:41:47;;;;;;;16.73;7.32;;;;;;;;;;4961761;28;20053;-90
2022/07/13 07:44:14;;;;;;;15.82;7.78;;;;;;;;;;4978356;28;20288;-90
2022/07/13 07:46:47;;;;;;;15.25;8.05;;;;;;;;;;4988966;28;20042;-88
2022/07/13 07:49:13;;;;;;;11.60;8.00;;;;;;;;;;4971057;28;20062;-91
2022/07/13 07:51:40;;;;;;;15.40;6.60;;;;;;;;;;4985346;28;20026;-89
2022/07/13 07:54:06;;;;;;;12.75;7.10;;;;;;;;;;4974857;28;20644;-89
2022/07/13 07:56:32;;;;;;;22.10;7.28;;;;;;;;;;4956956;28;20141;-89
2022/07/13 07:58:58;;;;;;;15.27;7.47;;;;;;;;;;4956620;28;20054;-90
2022/07/13 08:01:24;;;;;;;14.18;7.93;;;;;;;;;;4953584;28;20086;-89
2022/07/13 08:03:50;;;;;;;12.07;7.07;;;;;;;;;;4962772;28;20086;-89
2022/07/13 08:06:16;;;;;;;14.77;8.88;;;;;;;;;;4955782;28;20039;-89
2022/07/13 08:08:43;;;;;;;12.63;7.68;;;;;;;;;;4952048;28;20038;-89
2022/07/13 08:11:10;;;;;;;12.82;8.60;;;;;;;;;;4967332;28;20042;-89
2022/07/13 08:13:36;;;;;;;16.30;9.05;;;;;;;;;;4963225;28;20038;-89
2022/07/13 08:16:02;;;;;;;14.40;8.20;;;;;;;;;;4954214;28;20031;-89
2022/07/13 08:18:29;;;;;;;16.00;7.65;;;;;;;;;;4963359;28;20038;-88
2022/07/13 08:20:55;;;;;;;16.73;9.57;;;;;;;;;;4950513;28;20437;-89
2022/07/13 08:26:06;;;;;;;13.55;7.55;;;;;;;;;;4963716;28;20169;-89
2022/07/13 08:28:34;;;;;;;16.45;6.70;;;;;;;;;;4949309;28;20039;-90
2022/07/13 08:31:00;;;;;;;12.32;7.07;;;;;;;;;;4952475;28;20038;-90
2022/07/13 08:38:34;;;;;;;13.90;7.13;;;;;;;;;;4949944;28;20039;-89
2022/07/13 08:39:06;;;;;;;14.32;7.05;;;;;;;;;;4966538;28;20042;-91
2022/07/13 08:41:32;;;;;;;14.80;7.22;;;;;;;;;;4962276;28;20395;-90
2022/07/13 08:43:58;;;;;;;10.65;6.22;;;;;;;;;;4950366;28;20039;-90
2022/07/13 08:46:26;;;;;;;11.02;5.60;;;;;;;;;;4971192;28;20025;-89
2022/07/13 08:48:53;;;;;;;15.13;6.80;;;;;;;;;;4948309;28;20035;-90
2022/07/13 08:51:23;;;;;;;24.30;5.97;;;;;;;;;;4953031;28;20022;-90
2022/07/13 08:53:51;;;;;;;10.70;5.03;;;;;;;;;;4958834;28;20023;-90
2022/07/13 08:56:17;;;;;;;8.70;5.13;;;;;;;;;;4953467;28;20065;-89
2022/07/13 08:58:49;;;;;;;8.65;3.95;;;;;;;;;;4960053;28;20050;-90
2022/07/13 09:01:15;;;;;;;9.27;3.92;;;;;;;;;;4971272;28;20048;-89
2022/07/13 09:03:42;;;;;;;8.88;4.85;;;;;;;;;;4956562;28;20050;-90
2022/07/13 09:06:08;;;;;;;66.65;8.60;;;;;;;;;;4958720;28;20030;-90
2022/07/13 09:08:41;;;;;;;25.45;6.38;;;;;;;;;;4955687;28;20042;-90
2022/07/13 09:11:07;;;;;;;10.35;4.07;;;;;;;;;;4961302;28;20039;-90
2022/07/13 09:13:41;;;;;;;6.00;4.35;;;;;;;;;;4957426;28;20078;-90
2022/07/13 09:16:18;;;;;;;9.45;4.50;;;;;;;;;;4954345;28;20039;-90
2022/07/13 09:18:44;;;;;;;6.53;3.97;;;;;;;;;;4955308;28;20035;-89
2022/07/13 09:21:16;;;;;;;11.95;5.75;;;;;;;;;;4951049;28;20081;-94
2022/07/13 09:23:42;;;;;;;4.30;3.90;;;;;;;;;;4953310;28;20042;-92
2022/07/13 09:26:08;;;;;;;7.22;4.20;;;;;;;;;;4946132;28;20066;-92
2022/07/13 09:28:47;;;;;;;17.05;4.78;;;;;;;;;;4952268;28;20039;-92
2022/07/13 09:31:13;;;;;;;8.93;4.50;;;;;;;;;;4957410;28;20039;-92
2022/07/13 09:33:41;;;;;;;8.18;4.07;;;;;;;;;;4967854;28;20598;-92
2022/07/13 09:36:11;;;;;;;12.20;5.00;;;;;;;;;;4946285;28;20134;-91
2022/07/13 09:38:38;;;;;;;6.30;4.70;;;;;;;;;;4950908;28;20035;-92
2022/07/13 09:41:16;;;;;;;11.40;3.92;;;;;;;;;;4968561;28;20109;-92
2022/07/13 09:46:36;;;;;;;9.32;3.95;;;;;;;;;;4964430;28;20138;-92
2022/07/13 09:49:03;;;;;;;60.42;9.27;;;;;;;;;;4966334;28;20113;-92
2022/07/13 09:51:29;;;;;;;45.38;6.25;;;;;;;;;;4958372;28;20023;-93
2022/07/13 09:53:57;;;;;;;20.02;4.13;;;;;;;;;;4952995;28;20033;-92
2022/07/13 09:56:24;;;;;;;11.18;4.15;;;;;;;;;;4954968;28;20129;-92
2022/07/13 09:58:52;;;;;;;11.02;4.45;;;;;;;;;;4954279;28;20431;-92
2022/07/13 10:01:18;;;;;;;6.75;4.53;;;;;;;;;;4964281;28;20030;-93
2022/07/13 10:03:47;;;;;;;5.05;4.07;;;;;;;;;;4952127;28;20058;-92
2022/07/13 10:06:13;;;;;;;6.93;4.25;;;;;;;;;;4969724;28;20038;-92
2022/07/13 10:08:40;;;;;;;5.57;4.55;;;;;;;;;;4948084;28;20097;-92
2022/07/13 10:11:06;;;;;;;7.30;4.45;;;;;;;;;;4950349;28;20676;-91
2022/07/13 10:13:34;;;;;;;8.38;4.53;;;;;;;;;;4967255;28;20023;-92
2022/07/13 10:16:00;;;;;;;5.63;3.95;;;;;;;;;;4951103;28;20046;-92
2022/07/13 10:18:30;;;;;;;5.82;3.38;;;;;;;;;;4952539;28;20055;-90
2022/07/13 10:21:11;;;;;;;5.45;2.95;;;;;;;;;;4951567;28;20065;-90
2022/07/13 10:23:38;;;;;;;3.63;2.38;;;;;;;;;;4942526;28;20023;-89
2022/07/13 10:26:17;;;;;;;5.47;2.30;;;;;;;;;;4961815;28;20031;-89
2022/07/13 10:28:43;;;;;;;7.13;2.65;;;;;;;;;;4960945;28;20135;-90
2022/07/13 10:31:29;;;;;;;3.58;2.08;;;;;;;;;;4950546;28;20051;-90
2022/07/13 10:33:55;;;;;;;3.95;2.53;;;;;;;;;;4947872;28;20039;-91
2022/07/13 10:36:41;;;;;;;2.92;2.35;;;;;;;;;;4949669;28;20063;-90
2022/07/13 10:39:11;;;;;;;4.40;2.15;;;;;;;;;;4937807;28;20077;-90
2022/07/13 10:41:55;;;;;;;33.70;4.47;;;;;;;;;;4961289;28;20029;-89
2022/07/13 10:44:35;;;;;;;6.38;2.88;;;;;;;;;;4960846;28;20023;-89
2022/07/13 10:47:03;;;;;;;2.67;2.15;;;;;;;;;;4950333;28;20114;-89
2022/07/13 10:49:29;;;;;;;2.97;2.20;;;;;;;;;;4952370;28;20035;-89
2022/07/13 10:51:57;;;;;;;4.85;2.40;;;;;;;;;;4964931;28;20038;-89
2022/07/13 10:54:23;;;;;;;3.47;2.50;;;;;;;;;;4967404;28;20027;-89
2022/07/13 10:57:08;;;;;;;4.28;2.40;;;;;;;;;;4953166;28;20039;-89
2022/07/13 10:59:50;;;;;;;5.07;2.15;;;;;;;;;;4965814;28;20034;-89
2022/07/13 11:02:34;;;;;;;5.15;2.95;;;;;;;;;;4954650;28;20023;-89
2022/07/13 11:05:01;;;;;;;6.28;3.10;;;;;;;;;;4955278;28;20046;-89
2022/07/13 11:07:39;;;;;;;7.28;2.50;;;;;;;;;;4952743;28;20401;-89
2022/07/13 11:10:25;;;;;;;2.83;2.22;;;;;;;;;;4948446;28;20565;-89
2022/07/13 11:12:58;;;;;;;4.13;2.03;;;;;;;;;;4953163;28;20055;-91
2022/07/13 11:15:25;;;;;;;3.63;2.47;;;;;;;;;;4964922;28;21720;-89
2022/07/13 11:17:54;;;;;;;1.98;1.80;;;;;;;;;;4947498;28;20917;-89
2022/07/13 11:20:21;;;;;;;3.83;2.00;;;;;;;;;;4950407;28;20556;-89
2022/07/13 11:25:58;;;;;;;4.57;2.58;;;;;;;;;;4916043;28;20032;-90
2022/07/13 11:28:42;;;;;;;2.63;2.08;;;;;;;;;;4970879;28;20026;-89
2022/07/13 11:31:10;;;;;;;2.80;2.50;;;;;;;;;;4954490;28;20045;-89
2022/07/13 11:33:36;;;;;;;4.50;2.92;;;;;;;;;;4952832;28;20030;-89
2022/07/13 11:36:03;;;;;;;5.03;2.40;;;;;;;;;;4953202;28;20383;-89
2022/07/13 11:38:36;;;;;;;2.67;2.45;;;;;;;;;;4960132;28;20037;-90
2022/07/13 11:41:03;;;;;;;4.97;2.97;;;;;;;;;;4955583;28;20543;-90
2022/07/13 11:43:29;;;;;;;4.00;2.40;;;;;;;;;;4956457;28;20102;-89
2022/07/13 11:45:55;;;;;;;4.80;2.50;;;;;;;;;;4953469;28;20035;-90
2022/07/13 11:48:22;;;;;;;7.40;2.25;;;;;;;;;;4954161;28;20101;-89
2022/07/13 11:50:48;;;;;;;3.13;2.20;;;;;;;;;;4954141;28;20027;-89
2022/07/13 11:53:43;;;;;;;4.97;2.25;;;;;;;;;;4959080;28;20035;-89
2022/07/13 11:56:09;;;;;;;7.70;2.50;;;;;;;;;;4941097;28;20129;-90
2022/07/13 11:58:39;;;;;;;4.25;2.30;;;;;;;;;;4951474;28;20078;-89
2022/07/13 12:01:16;;;;;;;5.93;1.80;;;;;;;;;;4967174;28;20470;-90
2022/07/13 12:03:46;;;;;;;7.15;2.60;;;;;;;;;;4940985;28;20396;-89
2022/07/13 12:06:12;;;;;;;8.18;2.47;;;;;;;;;;4951832;28;20031;-90
2022/07/13 12:08:46;;;;;;;4.10;2.20;;;;;;;;;;4957889;28;20030;-90
2022/07/13 12:11:16;;;;;;;3.72;2.28;;;;;;;;;;4963678;28;20026;-90
2022/07/13 12:13:43;;;;;;;5.78;2.30;;;;;;;;;;4966154;28;20155;-89
2022/07/13 12:16:13;;;;;;;4.53;2.20;;;;;;;;;;4946932;28;20089;-90
2022/07/13 12:18:58;;;;;;;5.28;2.00;;;;;;;;;;4954607;28;20038;-90
2022/07/13 12:21:24;;;;;;;;;;;;;;;;;;4951747;28;20058;-90
2022/07/13 12:23:50;;;;;;;7.43;2.42;;;;;;;;;;4965072;28;19977;-89
2022/07/13 12:26:16;;;;;;;8.00;2.10;;;;;;;;;;4949174;28;20050;-89
2022/07/13 12:28:43;;;;;;;5.53;2.17;;;;;;;;;;4942731;28;20027;-89
2022/07/13 12:31:09;;;;;;;4.20;2.25;;;;;;;;;;4963415;28;20498;-89
2022/07/13 12:33:42;;;;;;;6.63;3.38;;;;;;;;;;4968124;28;20099;-89
2022/07/13 12:36:08;;;;;;;9.73;2.53;;;;;;;;;;4959285;28;20046;-89
2022/07/13 12:38:34;;;;;;;6.53;2.53;;;;;;;;;;4952754;28;20026;-89
2022/07/13 12:41:01;;;;;;;5.88;2.30;;;;;;;;;;4948171;28;20035;-90
2022/07/13 12:43:31;;;;;;;4.65;2.60;;;;;;;;;;4951276;28;20026;-90
2022/07/13 12:45:58;;;;;;;8.45;2.63;;;;;;;;;;4947651;28;20768;-90
2022/07/13 12:48:29;;;;;;;5.38;2.60;;;;;;;;;;4943983;28;20122;-89
2022/07/13 12:51:05;;;;;;;5.18;2.45;;;;;;;;;;4941942;28;20080;-90
2022/07/13 12:53:45;;;;;;;6.20;2.42;;;;;;;;;;4953719;28;20509;-89
2022/07/13 12:56:11;;;;;;;6.65;2.50;;;;;;;;;;4967655;28;20074;-89
2022/07/13 12:58:41;;;;;;;7.10;2.60;;;;;;;;;;4972352;28;20106;-89
2022/07/13 13:01:07;;;;;;;6.40;2.50;;;;;;;;;;4948512;28;20031;-89
2022/07/13 13:03:33;;;;;;;5.07;2.35;;;;;;;;;;4948020;28;20022;-90
2022/07/13 13:05:59;;;;;;;9.82;2.42;;;;;;;;;;4945087;28;20213;-90
2022/07/13 13:08:25;;;;;;;6.18;2.40;;;;;;;;;;4945322;28;20030;-91
2022/07/13 13:10:52;;;;;;;6.07;2.47;;;;;;;;;;4954194;28;20034;-91
2022/07/13 13:13:18;;;;;;;2.28;1.65;;;;;;;;;;4960282;28;20046;-91
2022/07/13 13:15:45;;;;;;;6.70;2.22;;;;;;;;;;4970366;28;20064;-91
2022/07/13 13:18:13;;;;;;;4.13;2.45;;;;;;;;;;4955813;28;20031;-90
2022/07/13 13:20:40;;;;;;;3.88;1.83;;;;;;;;;;4952685;28;20049;-91
2022/07/13 13:23:06;;;;;;;6.75;2.88;;;;;;;;;;4948457;28;20037;-90
2022/07/13 13:25:32;;;;;;;5.05;2.38;;;;;;;;;;4965106;28;20415;-90
2022/07/13 13:27:58;;;;;;;11.52;3.75;;;;;;;;;;4953718;28;20306;-91
2022/07/13 13:33:08;;;;;;;10.80;2.50;;;;;;;;;;4973080;28;20070;-91
2022/07/13 13:35:35;;;;;;;5.78;2.40;;;;;;;;;;4955634;28;20513;-90
2022/07/13 13:38:01;;;;;;;7.47;2.28;;;;;;;;;;4945885;28;20039;-91
2022/07/13 13:40:27;;;;;;;5.15;2.28;;;;;;;;;;4960946;28;20545;-91
2022/07/13 13:42:53;;;;;;;6.03;2.72;;;;;;;;;;4952845;28;20762;-91
2022/07/13 13:45:19;;;;;;;7.07;2.10;;;;;;;;;;4964704;28;20039;-91
2022/07/13 13:47:45;;;;;;;4.57;1.73;;;;;;;;;;4952742;28;20110;-90
2022/07/13 13:50:11;;;;;;;6.72;2.08;;;;;;;;;;4963141;28;20034;-91
2022/07/13 13:52:38;;;;;;;8.18;2.10;;;;;;;;;;4953079;28;20700;-90
2022/07/13 13:55:04;;;;;;;5.40;2.03;;;;;;;;;;4950382;28;20050;-90
2022/07/13 13:57:30;;;;;;;6.70;2.10;;;;;;;;;;4944370;28;20066;-91
2022/07/13 13:59:56;;;;;;;6.97;2.38;;;;;;;;;;4955989;28;20023;-91
2022/07/13 14:02:22;;;;;;;2.83;1.67;;;;;;;;;;4951899;28;20398;-91
2022/07/13 14:04:55;;;;;;;4.25;2.15;;;;;;;;;;4967534;28;20038;-89
2022/07/13 14:07:21;;;;;;;10.23;2.28;;;;;;;;;;4956691;28;20049;-90
2022/07/13 14:09:48;;;;;;;5.38;1.98;;;;;;;;;;4969632;28;20042;-90
2022/07/13 14:12:14;;;;;;;5.00;1.92;;;;;;;;;;4964647;28;20517;-90
2022/07/13 14:14:40;;;;;;;6.47;2.15;;;;;;;;;;4963681;28;20121;-90
2022/07/13 14:17:06;;;;;;;5.45;2.05;;;;;;;;;;4970925;28;20126;-90
2022/07/13 14:19:32;;;;;;;3.95;2.03;;;;;;;;;;4953838;28;21557;-92
2022/07/13 14:21:58;;;;;;;5.85;2.05;;;;;;;;;;4961802;28;20045;-89
2022/07/13 14:24:24;;;;;;;7.10;2.10;;;;;;;;;;4954208;28;20038;-89
2022/07/13 14:26:50;;;;;;;6.38;2.30;;;;;;;;;;4954865;28;20475;-89
2022/07/13 14:29:17;;;;;;;7.65;2.33;;;;;;;;;;4952892;28;20093;-89
2022/07/13 14:31:43;;;;;;;8.35;2.13;;;;;;;;;;4957669;28;20102;-88
2022/07/13 14:34:09;;;;;;;4.97;2.20;;;;;;;;;;4954837;28;20086;-89
2022/07/13 14:36:34;;;;;;;4.70;1.63;;;;;;;;;;4965161;28;20621;-88
2022/07/13 14:39:00;;;;;;;11.30;2.95;;;;;;;;;;4965225;28;20066;-87
2022/07/13 14:41:27;;;;;;;8.27;2.40;;;;;;;;;;4962187;28;20043;-88
2022/07/13 14:43:53;;;;;;;4.05;2.05;;;;;;;;;;4949600;28;20081;-89
2022/07/13 14:46:22;;;;;;;8.07;2.28;;;;;;;;;;4963238;28;20118;-89
2022/07/13 14:48:49;;;;;;;14.30;2.65;;;;;;;;;;4958745;28;20039;-87
2022/07/13 14:51:15;;;;;;;9.10;2.55;;;;;;;;;;4949022;28;20122;-86
2022/07/13 14:53:41;;;;;;;13.73;2.65;;;;;;;;;;4962031;28;20626;-86